Time;durP1;ratioP1;P1;durP2;ratioP2;P2;SDS_P1;SDS_P2;PMS_P1;PMS_P2;Temp;Humidity;BMP_temperature;BMP_pressure;BME280_temperature;BME280_humidity;BME280_pressure;Samples;Min_cycle;Max_cycle;Signal;HPM_P1;HPM_P2
2023/11/04 00:01:57;;;;;;;4.60;2.60;;;;;;;;;;5019504;28;20030;-83
2023/11/04 00:04:22;;;;;;;4.95;2.15;;;;;;;;;;5020258;28;20062;-82
2023/11/04 00:06:48;;;;;;;4.88;2.88;;;;;;;;;;5019136;28;20022;-83
2023/11/04 00:09:13;;;;;;;3.92;2.60;;;;;;;;;;5019536;28;20022;-82
2023/11/04 00:11:39;;;;;;;4.35;2.95;;;;;;;;;;5018188;28;20025;-83
2023/11/04 00:14:04;;;;;;;6.32;2.45;;;;;;;;;;5017437;28;20029;-83
2023/11/04 00:16:30;;;;;;;8.52;3.42;;;;;;;;;;5020682;28;20026;-82
2023/11/04 00:18:56;;;;;;;5.97;3.13;;;;;;;;;;5037137;28;20057;-81
2023/11/04 00:21:22;;;;;;;4.97;2.58;;;;;;;;;;5035256;28;20029;-81
2023/11/04 00:23:48;;;;;;;6.68;2.47;;;;;;;;;;5020127;28;20072;-82
2023/11/04 00:26:13;;;;;;;8.52;2.97;;;;;;;;;;5038227;28;20030;-82
2023/11/04 00:28:40;;;;;;;4.70;2.63;;;;;;;;;;5016705;28;20105;-84
2023/11/04 00:31:07;;;;;;;9.73;3.10;;;;;;;;;;5020611;28;20024;-83
2023/11/04 00:33:33;;;;;;;6.70;2.70;;;;;;;;;;5037609;28;20045;-82
2023/11/04 00:35:59;;;;;;;6.20;2.47;;;;;;;;;;5038920;28;20025;-85
2023/11/04 00:38:25;;;;;;;9.02;3.08;;;;;;;;;;5040203;28;20267;-83
2023/11/04 00:40:51;;;;;;;2.87;2.27;;;;;;;;;;5037095;28;20051;-82
2023/11/04 00:43:16;;;;;;;5.18;2.58;;;;;;;;;;5039045;28;20043;-83
2023/11/04 00:45:42;;;;;;;9.43;2.17;;;;;;;;;;5038397;28;20029;-83
2023/11/04 00:48:08;;;;;;;9.80;2.63;;;;;;;;;;5021628;28;20030;-83
2023/11/04 00:50:33;;;;;;;7.15;2.55;;;;;;;;;;5037193;28;20036;-83
2023/11/04 00:52:59;;;;;;;5.15;2.75;;;;;;;;;;5021444;28;20017;-83
2023/11/04 00:55:25;;;;;;;3.75;1.85;;;;;;;;;;5037383;28;20033;-84
2023/11/04 00:57:51;;;;;;;7.03;2.58;;;;;;;;;;5020438;28;20036;-82
2023/11/04 01:00:23;;;;;;;5.28;2.80;;;;;;;;;;5038813;28;20443;-84
2023/11/04 01:02:49;;;;;;;7.93;2.80;;;;;;;;;;5039635;28;20404;-82
2023/11/04 01:05:14;;;;;;;5.10;2.28;;;;;;;;;;5024648;28;20025;-84
2023/11/04 01:07:40;;;;;;;4.68;2.67;;;;;;;;;;5024700;28;20116;-84
2023/11/04 01:10:07;;;;;;;5.68;2.53;;;;;;;;;;5039838;28;20021;-81
2023/11/04 01:12:32;;;;;;;6.70;2.45;;;;;;;;;;5023925;28;20033;-83
2023/11/04 01:14:59;;;;;;;7.65;2.47;;;;;;;;;;5041825;28;20067;-84
2023/11/04 01:17:26;;;;;;;3.72;2.65;;;;;;;;;;5040351;28;20052;-83
2023/11/04 01:19:52;;;;;;;3.15;2.05;;;;;;;;;;5043820;28;20052;-83
2023/11/04 01:22:17;;;;;;;4.68;2.30;;;;;;;;;;5041729;28;20026;-82
2023/11/04 01:24:43;;;;;;;5.80;2.33;;;;;;;;;;5038765;28;20029;-83
2023/11/04 01:27:09;;;;;;;7.18;2.85;;;;;;;;;;5042273;28;20025;-82
2023/11/04 01:29:34;;;;;;;8.50;3.22;;;;;;;;;;5020636;28;20084;-84
2023/11/04 01:32:00;;;;;;;10.63;2.63;;;;;;;;;;5020994;28;20026;-81
2023/11/04 01:34:26;;;;;;;7.22;3.33;;;;;;;;;;5021468;28;20037;-82
2023/11/04 01:36:52;;;;;;;9.60;3.08;;;;;;;;;;5021362;28;20085;-86
2023/11/04 01:39:17;;;;;;;6.32;2.97;;;;;;;;;;5020855;28;20010;-83
2023/11/04 01:41:43;;;;;;;4.28;2.30;;;;;;;;;;5019753;28;20075;-81
2023/11/04 01:44:09;;;;;;;5.40;3.10;;;;;;;;;;5019540;28;20021;-83
2023/11/04 01:46:35;;;;;;;5.80;2.20;;;;;;;;;;5020458;28;20026;-83
2023/11/04 01:49:01;;;;;;;4.78;2.47;;;;;;;;;;5020087;28;20437;-83
2023/11/04 01:51:29;;;;;;;4.20;2.35;;;;;;;;;;5023670;28;20092;-84
2023/11/04 01:53:55;;;;;;;5.55;2.40;;;;;;;;;;5023878;28;20037;-80
2023/11/04 01:56:29;;;;;;;8.98;2.95;;;;;;;;;;5041642;28;20381;-82
2023/11/04 01:58:56;;;;;;;7.25;2.70;;;;;;;;;;5006704;28;20044;-85
2023/11/04 02:01:23;;;;;;;7.10;2.67;;;;;;;;;;5022589;28;20082;-84
2023/11/04 02:03:51;;;;;;;7.15;2.40;;;;;;;;;;5017964;28;20393;-82
2023/11/04 02:06:17;;;;;;;7.38;2.65;;;;;;;;;;5036369;28;20026;-83
2023/11/04 02:08:45;;;;;;;8.70;2.90;;;;;;;;;;5021238;28;20128;-84
2023/11/04 02:11:10;;;;;;;6.13;2.90;;;;;;;;;;5020183;28;20022;-84
2023/11/04 02:13:37;;;;;;;6.50;2.75;;;;;;;;;;5020439;28;20116;-85
2023/11/04 02:16:06;;;;;;;6.18;2.78;;;;;;;;;;5020934;28;20026;-84
2023/11/04 02:18:31;;;;;;;9.18;2.60;;;;;;;;;;5035818;28;20096;-83
2023/11/04 02:21:00;;;;;;;5.55;2.65;;;;;;;;;;5019969;28;20449;-83
2023/11/04 02:23:26;;;;;;;5.43;2.67;;;;;;;;;;5019175;28;20112;-84
2023/11/04 02:25:53;;;;;;;2.53;2.13;;;;;;;;;;5020274;28;20435;-83
2023/11/04 02:28:19;;;;;;;4.95;3.00;;;;;;;;;;5022706;28;20029;-82
2023/11/04 02:30:45;;;;;;;7.88;2.30;;;;;;;;;;5001390;28;20114;-84
2023/11/04 02:33:10;;;;;;;8.52;2.70;;;;;;;;;;5020235;28;20053;-81
2023/11/04 02:35:36;;;;;;;5.43;2.13;;;;;;;;;;5018435;28;20017;-82
2023/11/04 02:38:02;;;;;;;6.93;2.50;;;;;;;;;;5018654;28;20032;-82
2023/11/04 02:40:28;;;;;;;7.22;2.35;;;;;;;;;;5031231;28;20032;-84
2023/11/04 02:42:54;;;;;;;8.80;2.72;;;;;;;;;;5040613;28;20040;-83
2023/11/04 02:45:19;;;;;;;4.55;2.15;;;;;;;;;;5040472;28;20038;-82
2023/11/04 02:47:45;;;;;;;3.45;2.15;;;;;;;;;;5039086;28;20163;-83
2023/11/04 02:50:13;;;;;;;3.05;2.22;;;;;;;;;;5022977;28;20273;-81
2023/11/04 02:52:39;;;;;;;5.43;2.17;;;;;;;;;;5024659;28;20421;-83
2023/11/04 02:55:05;;;;;;;7.15;2.58;;;;;;;;;;5020364;28;20022;-83
2023/11/04 02:57:32;;;;;;;8.05;2.20;;;;;;;;;;5018404;28;20080;-81
2023/11/04 02:59:58;;;;;;;5.43;2.03;;;;;;;;;;5018292;28;20030;-83
2023/11/04 03:02:24;;;;;;;4.78;2.40;;;;;;;;;;5038025;28;20485;-82
2023/11/04 03:04:49;;;;;;;4.35;1.88;;;;;;;;;;5039371;28;20130;-84
2023/11/04 03:07:15;;;;;;;8.10;2.03;;;;;;;;;;5038949;28;20400;-82
2023/11/04 03:09:40;;;;;;;5.50;2.20;;;;;;;;;;5019669;28;20583;-82
2023/11/04 03:12:06;;;;;;;4.78;2.08;;;;;;;;;;5035977;28;20381;-83
2023/11/04 03:14:32;;;;;;;6.32;2.40;;;;;;;;;;5019724;28;20041;-82
2023/11/04 03:16:58;;;;;;;7.55;2.28;;;;;;;;;;5039202;28;20030;-83
2023/11/04 03:19:24;;;;;;;6.32;2.60;;;;;;;;;;5037223;28;20049;-83
2023/11/04 03:21:50;;;;;;;7.43;1.70;;;;;;;;;;5039368;28;20013;-83
2023/11/04 03:24:19;;;;;;;2.90;1.58;;;;;;;;;;5019848;28;20028;-82
2023/11/04 03:26:45;;;;;;;7.20;2.10;;;;;;;;;;5022596;28;20037;-82
2023/11/04 03:29:10;;;;;;;3.42;2.55;;;;;;;;;;5017531;28;20018;-83
2023/11/04 03:31:37;;;;;;;3.58;2.03;;;;;;;;;;5018028;28;20032;-83
2023/11/04 03:34:03;;;;;;;8.63;2.40;;;;;;;;;;5015588;28;20049;-84
2023/11/04 03:36:29;;;;;;;9.77;2.28;;;;;;;;;;5018518;28;20065;-85
2023/11/04 03:38:55;;;;;;;7.85;1.95;;;;;;;;;;5034411;28;20076;-82
2023/11/04 03:41:21;;;;;;;4.50;2.08;;;;;;;;;;5003512;28;20082;-83
2023/11/04 03:43:46;;;;;;;3.63;2.15;;;;;;;;;;5036979;28;20028;-84
2023/11/04 03:46:12;;;;;;;3.70;1.98;;;;;;;;;;5037669;28;20358;-85
2023/11/04 03:48:38;;;;;;;6.32;2.13;;;;;;;;;;5022712;28;20025;-85
2023/11/04 03:51:08;;;;;;;4.60;1.70;;;;;;;;;;5037329;28;20103;-82
2023/11/04 03:53:34;;;;;;;4.53;1.60;;;;;;;;;;5021067;28;20069;-83
2023/11/04 03:56:01;;;;;;;5.75;2.00;;;;;;;;;;5037358;28;20056;-84
2023/11/04 03:58:27;;;;;;;5.10;1.95;;;;;;;;;;5038626;28;20481;-83
2023/11/04 04:00:54;;;;;;;4.25;1.95;;;;;;;;;;5019567;28;20099;-83
2023/11/04 04:03:20;;;;;;;7.40;2.17;;;;;;;;;;5037145;28;20029;-82
2023/11/04 04:05:46;;;;;;;3.60;2.17;;;;;;;;;;5038149;28;20481;-82
2023/11/04 04:08:11;;;;;;;8.45;1.50;;;;;;;;;;5038683;28;20118;-82
2023/11/04 04:10:37;;;;;;;7.45;1.83;;;;;;;;;;5019105;28;20052;-83
2023/11/04 04:13:04;;;;;;;6.90;1.85;;;;;;;;;;5033955;28;20079;-83
2023/11/04 04:15:29;;;;;;;5.32;2.13;;;;;;;;;;5016155;28;20084;-83
2023/11/04 04:17:55;;;;;;;1.92;1.63;;;;;;;;;;5015052;28;20018;-82
2023/11/04 04:20:21;;;;;;;3.60;2.10;;;;;;;;;;5035995;28;20477;-82
2023/11/04 04:22:47;;;;;;;4.32;2.25;;;;;;;;;;5019078;28;20041;-79
2023/11/04 04:25:14;;;;;;;5.95;2.10;;;;;;;;;;5035469;28;20116;-81
2023/11/04 04:27:40;;;;;;;4.03;1.77;;;;;;;;;;5036658;28;20033;-83
2023/11/04 04:30:08;;;;;;;3.03;2.05;;;;;;;;;;5037654;28;20056;-82
2023/11/04 04:32:33;;;;;;;4.25;2.38;;;;;;;;;;5036912;28;20361;-82
2023/11/04 04:34:59;;;;;;;6.35;2.08;;;;;;;;;;5036703;28;20025;-83
2023/11/04 04:37:29;;;;;;;10.40;1.92;;;;;;;;;;5034978;28;20084;-82
2023/11/04 04:39:55;;;;;;;7.43;2.63;;;;;;;;;;5035333;28;20033;-83
2023/11/04 04:42:20;;;;;;;2.40;1.70;;;;;;;;;;5036934;28;20055;-83
2023/11/04 04:44:46;;;;;;;6.35;1.70;;;;;;;;;;5036262;28;20033;-83
2023/11/04 04:47:12;;;;;;;3.78;1.60;;;;;;;;;;5035626;28;20029;-82
2023/11/04 04:49:37;;;;;;;6.28;2.15;;;;;;;;;;5019762;28;20119;-84
2023/11/04 04:52:03;;;;;;;5.90;1.73;;;;;;;;;;5037053;28;20100;-81
2023/11/04 04:54:29;;;;;;;7.50;1.83;;;;;;;;;;5036182;28;20037;-84
2023/11/04 04:56:56;;;;;;;6.37;1.87;;;;;;;;;;5037012;28;20484;-83
2023/11/04 04:59:22;;;;;;;5.80;2.28;;;;;;;;;;5018744;28;20461;-85
2023/11/04 05:01:48;;;;;;;12.27;3.60;;;;;;;;;;5035592;28;20052;-82
2023/11/04 05:04:14;;;;;;;6.63;2.80;;;;;;;;;;5019420;28;20041;-83
2023/11/04 05:06:40;;;;;;;5.57;2.07;;;;;;;;;;5019701;28;20473;-82
2023/11/04 05:09:05;;;;;;;4.37;2.10;;;;;;;;;;5037143;28;20037;-83
2023/11/04 05:11:31;;;;;;;9.43;3.03;;;;;;;;;;5036481;28;20428;-83
2023/11/04 05:13:57;;;;;;;4.15;1.80;;;;;;;;;;5019750;28;20029;-82
2023/11/04 05:16:22;;;;;;;4.85;2.30;;;;;;;;;;5037275;28;20029;-82
2023/11/04 05:18:48;;;;;;;4.83;2.13;;;;;;;;;;5036520;28;20412;-83
2023/11/04 05:21:16;;;;;;;4.87;1.87;;;;;;;;;;5018744;28;20487;-81
2023/11/04 05:23:43;;;;;;;5.97;2.40;;;;;;;;;;5021216;28;20039;-83
2023/11/04 05:26:08;;;;;;;4.63;2.65;;;;;;;;;;5019153;28;20021;-85
2023/11/04 05:28:34;;;;;;;6.38;2.03;;;;;;;;;;5036790;28;20104;-83
2023/11/04 05:31:00;;;;;;;8.00;3.37;;;;;;;;;;5037272;28;20041;-82
2023/11/04 05:33:26;;;;;;;5.37;2.13;;;;;;;;;;5035473;28;20030;-84
2023/11/04 05:35:52;;;;;;;7.97;2.73;;;;;;;;;;5037250;28;20030;-83
2023/11/04 05:38:18;;;;;;;7.07;2.73;;;;;;;;;;5016156;28;20436;-83
2023/11/04 05:40:44;;;;;;;7.00;2.10;;;;;;;;;;5014009;28;20053;-85
2023/11/04 05:43:10;;;;;;;8.10;2.67;;;;;;;;;;5014362;28;20088;-83
2023/11/04 05:45:35;;;;;;;3.43;2.27;;;;;;;;;;5016035;28;20026;-83
2023/11/04 05:48:01;;;;;;;3.00;2.10;;;;;;;;;;5017604;28;20466;-83
2023/11/04 05:50:27;;;;;;;5.57;2.67;;;;;;;;;;5022396;28;20532;-82
2023/11/04 05:52:52;;;;;;;2.60;2.37;;;;;;;;;;5039075;28;20034;-80
2023/11/04 05:55:18;;;;;;;8.23;3.30;;;;;;;;;;5039264;28;20021;-83
2023/11/04 05:57:44;;;;;;;6.30;2.73;;;;;;;;;;5021727;28;20026;-81
2023/11/04 06:00:13;;;;;;;3.63;2.57;;;;;;;;;;5039431;28;20026;-83
2023/11/04 06:02:39;;;;;;;3.83;2.70;;;;;;;;;;5002056;28;20064;-83
2023/11/04 06:05:12;;;;;;;6.83;2.87;;;;;;;;;;5017082;28;20042;-83
2023/11/04 06:07:38;;;;;;;6.60;3.00;;;;;;;;;;5001736;28;20033;-82
2023/11/04 06:10:08;;;;;;;6.80;2.50;;;;;;;;;;5016809;28;20443;-85
2023/11/04 06:12:36;;;;;;;4.60;3.00;;;;;;;;;;5017811;28;20042;-84
2023/11/04 06:15:02;;;;;;;4.60;2.70;;;;;;;;;;5017789;28;20466;-83
2023/11/04 06:17:28;;;;;;;6.13;2.43;;;;;;;;;;5030929;28;20073;-84
2023/11/04 06:19:54;;;;;;;5.13;3.13;;;;;;;;;;5033901;28;20065;-81
2023/11/04 06:22:20;;;;;;;7.13;3.40;;;;;;;;;;5019884;28;20077;-85
2023/11/04 06:24:45;;;;;;;8.57;3.23;;;;;;;;;;5018468;28;20030;-84
2023/11/04 06:27:11;;;;;;;6.73;2.67;;;;;;;;;;5018204;28;20033;-83
2023/11/04 06:29:36;;;;;;;4.83;2.67;;;;;;;;;;5018831;28;20036;-83
2023/11/04 06:32:02;;;;;;;5.90;2.83;;;;;;;;;;5017043;28;20025;-84
2023/11/04 06:34:28;;;;;;;2.90;2.33;;;;;;;;;;5018636;28;20464;-84
2023/11/04 06:36:54;;;;;;;6.27;2.53;;;;;;;;;;5019069;28;20030;-83
2023/11/04 06:39:20;;;;;;;3.47;2.30;;;;;;;;;;5021653;28;20030;-84
2023/11/04 06:41:45;;;;;;;3.90;3.40;;;;;;;;;;5039993;28;20051;-83
2023/11/04 06:44:12;;;;;;;3.47;2.10;;;;;;;;;;5036857;28;20025;-84
2023/11/04 06:46:41;;;;;;;4.37;2.43;;;;;;;;;;5041195;28;20029;-84
2023/11/04 06:49:07;;;;;;;5.30;1.97;;;;;;;;;;5020916;28;20378;-83
2023/11/04 06:51:32;;;;;;;4.97;2.10;;;;;;;;;;5038329;28;20083;-83
2023/11/04 06:53:58;;;;;;;3.57;2.20;;;;;;;;;;5037980;28;20026;-83
2023/11/04 06:56:24;;;;;;;9.47;2.43;;;;;;;;;;5038113;28;20048;-83
2023/11/04 06:58:53;;;;;;;5.67;2.33;;;;;;;;;;5038424;28;20029;-85
2023/11/04 07:01:19;;;;;;;6.73;1.83;;;;;;;;;;5019885;28;20037;-83
2023/11/04 07:03:47;;;;;;;8.47;2.17;;;;;;;;;;5031388;28;20053;-83
2023/11/04 07:06:14;;;;;;;4.77;1.90;;;;;;;;;;5016682;28;20061;-84
2023/11/04 07:08:40;;;;;;;7.30;2.00;;;;;;;;;;5016365;28;20446;-82
2023/11/04 07:11:06;;;;;;;3.63;1.80;;;;;;;;;;5017035;28;20163;-82
2023/11/04 07:13:32;;;;;;;4.53;1.70;;;;;;;;;;5016527;28;20061;-84
2023/11/04 07:15:57;;;;;;;6.80;2.10;;;;;;;;;;5032015;28;20026;-83
2023/11/04 07:18:23;;;;;;;4.20;1.77;;;;;;;;;;5037193;28;20103;-82
2023/11/04 07:20:49;;;;;;;2.28;1.60;;;;;;;;;;5020178;28;20033;-83
2023/11/04 07:23:17;;;;;;;2.75;1.50;;;;;;;;;;5037461;28;20036;-83
2023/11/04 07:25:44;;;;;;;5.13;1.93;;;;;;;;;;5037208;28;20037;-82
2023/11/04 07:28:10;;;;;;;7.53;1.93;;;;;;;;;;5036900;28;20022;-81
2023/11/04 07:30:37;;;;;;;4.47;1.60;;;;;;;;;;5003191;28;20041;-81
2023/11/04 07:33:03;;;;;;;3.90;1.70;;;;;;;;;;5034784;28;20398;-83
2023/11/04 07:35:30;;;;;;;5.33;1.57;;;;;;;;;;5035770;28;20091;-83
2023/11/04 07:37:56;;;;;;;5.13;2.07;;;;;;;;;;5018709;28;20033;-80
2023/11/04 07:40:23;;;;;;;6.10;2.15;;;;;;;;;;5034959;28;20033;-82
2023/11/04 07:42:50;;;;;;;3.10;1.73;;;;;;;;;;5019288;28;20029;-83
2023/11/04 07:45:15;;;;;;;1.50;1.23;;;;;;;;;;5018035;28;20128;-82
2023/11/04 07:47:43;;;;;;;5.45;1.85;;;;;;;;;;5035154;28;20160;-82
2023/11/04 07:50:10;;;;;;;4.95;1.90;;;;;;;;;;5034816;28;20029;-83
2023/11/04 07:52:42;;;;;;;3.25;1.52;;;;;;;;;;5032516;28;20033;-81
2023/11/04 07:55:08;;;;;;;4.18;1.20;;;;;;;;;;5035077;28;20033;-82
2023/11/04 07:57:38;;;;;;;5.18;2.00;;;;;;;;;;5017274;28;20117;-83
2023/11/04 08:00:07;;;;;;;3.03;1.48;;;;;;;;;;5034526;28;20034;-84
2023/11/04 08:02:33;;;;;;;5.07;1.55;;;;;;;;;;5016667;28;20106;-84
2023/11/04 08:05:02;;;;;;;1.83;1.35;;;;;;;;;;5014373;28;20034;-83
2023/11/04 08:07:29;;;;;;;1.73;0.93;;;;;;;;;;5014212;28;20026;-82
2023/11/04 08:09:55;;;;;;;3.72;1.83;;;;;;;;;;5014921;28;20068;-82
2023/11/04 08:12:21;;;;;;;2.42;1.30;;;;;;;;;;5015261;28;20018;-79
2023/11/04 08:14:48;;;;;;;1.98;1.20;;;;;;;;;;5013254;28;20026;-82
2023/11/04 08:17:14;;;;;;;2.05;1.10;;;;;;;;;;4999071;28;20034;-82
2023/11/04 08:19:40;;;;;;;7.45;1.20;;;;;;;;;;5016443;28;20053;-82
2023/11/04 08:22:07;;;;;;;2.65;1.35;;;;;;;;;;5015379;28;20018;-83
2023/11/04 08:24:33;;;;;;;4.53;1.90;;;;;;;;;;5017187;28;20025;-84
2023/11/04 08:26:58;;;;;;;1.50;1.10;;;;;;;;;;4998996;28;20036;-82
2023/11/04 08:29:24;;;;;;;2.40;1.30;;;;;;;;;;4998964;28;20030;-80
2023/11/04 08:31:50;;;;;;;4.50;1.30;;;;;;;;;;5015977;28;20029;-84
2023/11/04 08:34:16;;;;;;;3.60;1.73;;;;;;;;;;5014093;28;20032;-82
2023/11/04 08:36:42;;;;;;;4.43;1.65;;;;;;;;;;5014939;28;20026;-82
2023/11/04 08:39:08;;;;;;;2.47;1.27;;;;;;;;;;5016014;28;20053;-82
2023/11/04 08:41:35;;;;;;;3.17;1.27;;;;;;;;;;5034896;28;20025;-81
2023/11/04 08:44:00;;;;;;;2.38;1.40;;;;;;;;;;5020841;28;20026;-83
2023/11/04 08:46:26;;;;;;;3.13;1.25;;;;;;;;;;5035204;28;20031;-84
2023/11/04 08:48:53;;;;;;;4.63;1.73;;;;;;;;;;5017896;28;20409;-82
2023/11/04 08:51:18;;;;;;;3.00;1.33;;;;;;;;;;5031080;28;20110;-82
2023/11/04 08:53:44;;;;;;;3.28;1.67;;;;;;;;;;5016427;28;20025;-82
2023/11/04 08:56:09;;;;;;;2.13;1.35;;;;;;;;;;5014731;28;20132;-81
2023/11/04 08:58:35;;;;;;;1.95;1.20;;;;;;;;;;5015919;28;20026;-83
2023/11/04 09:01:01;;;;;;;2.90;1.50;;;;;;;;;;5018285;28;20235;-82
2023/11/04 09:03:28;;;;;;;2.53;1.23;;;;;;;;;;5020024;28;20030;-82
2023/11/04 09:05:54;;;;;;;3.88;1.15;;;;;;;;;;5037394;28;20757;-84
2023/11/04 09:08:20;;;;;;;2.75;1.30;;;;;;;;;;5037191;28;20167;-81
2023/11/04 09:10:47;;;;;;;3.60;1.60;;;;;;;;;;5037513;28;20057;-81
2023/11/04 09:13:15;;;;;;;2.50;1.20;;;;;;;;;;5019259;28;20022;-83
2023/11/04 09:15:41;;;;;;;3.95;1.30;;;;;;;;;;5034870;28;20045;-82
2023/11/04 09:18:07;;;;;;;5.82;2.25;;;;;;;;;;5034625;28;20076;-83
2023/11/04 09:20:34;;;;;;;2.40;1.08;;;;;;;;;;5017105;28;20523;-81
2023/11/04 09:23:02;;;;;;;2.78;1.10;;;;;;;;;;5020015;28;20021;-83
2023/11/04 09:25:27;;;;;;;4.55;1.27;;;;;;;;;;5037494;28;20048;-83
2023/11/04 09:27:53;;;;;;;3.42;0.90;;;;;;;;;;5037772;28;20036;-82
2023/11/04 09:30:19;;;;;;;4.32;1.02;;;;;;;;;;5039499;28;20025;-83
2023/11/04 09:32:45;;;;;;;1.85;1.27;;;;;;;;;;5039372;28;20021;-82
2023/11/04 09:35:12;;;;;;;1.70;0.82;;;;;;;;;;5039736;28;20132;-84
2023/11/04 09:37:39;;;;;;;0.80;0.80;;;;;;;;;;5022081;28;20471;-83
2023/11/04 09:40:05;;;;;;;2.28;0.90;;;;;;;;;;5033556;28;20068;-81
2023/11/04 09:42:31;;;;;;;1.08;0.93;;;;;;;;;;5019412;28;20121;-83
2023/11/04 09:44:57;;;;;;;3.42;1.10;;;;;;;;;;5019438;28;20076;-84
2023/11/04 09:47:25;;;;;;;2.53;1.20;;;;;;;;;;5035913;28;20038;-83
2023/11/04 09:49:51;;;;;;;1.83;0.93;;;;;;;;;;5021250;28;20037;-82
2023/11/04 09:52:18;;;;;;;1.92;0.85;;;;;;;;;;5020764;28;20358;-83
2023/11/04 09:54:45;;;;;;;2.38;0.77;;;;;;;;;;5019306;28;20049;-83
2023/11/04 09:57:11;;;;;;;1.20;0.70;;;;;;;;;;5032983;28;20481;-83
2023/11/04 09:59:37;;;;;;;3.88;1.13;;;;;;;;;;5033724;28;20128;-82
2023/11/04 10:02:03;;;;;;;1.65;0.80;;;;;;;;;;5002222;28;20452;-83
2023/11/04 10:04:29;;;;;;;2.50;0.90;;;;;;;;;;5031507;28;20034;-80
2023/11/04 10:06:55;;;;;;;1.48;1.13;;;;;;;;;;5032116;28;20014;-84
2023/11/04 10:09:20;;;;;;;0.88;0.80;;;;;;;;;;5017815;28;20029;-82
2023/11/04 10:11:46;;;;;;;0.60;0.60;;;;;;;;;;5017664;28;20022;-84
2023/11/04 10:14:11;;;;;;;1.17;0.60;;;;;;;;;;5002640;28;20544;-83
2023/11/04 10:16:37;;;;;;;2.45;0.65;;;;;;;;;;5029958;28;20068;-85
2023/11/04 10:19:03;;;;;;;3.53;0.85;;;;;;;;;;5021963;28;20049;-81
2023/11/04 10:21:29;;;;;;;3.10;0.80;;;;;;;;;;5040163;28;20028;-81
2023/11/04 10:23:54;;;;;;;1.73;1.00;;;;;;;;;;5022243;28;20025;-82
2023/11/04 10:26:22;;;;;;;4.65;1.65;;;;;;;;;;5038208;28;20098;-84
2023/11/04 10:28:48;;;;;;;1.85;1.27;;;;;;;;;;5028887;28;20038;-84
2023/11/04 10:31:19;;;;;;;1.50;0.88;;;;;;;;;;5018902;28;20025;-83
2023/11/04 10:33:47;;;;;;;1.35;0.88;;;;;;;;;;5034495;28;20473;-84
2023/11/04 10:36:16;;;;;;;2.55;0.82;;;;;;;;;;5019011;28;20470;-83
2023/11/04 10:38:44;;;;;;;0.77;0.68;;;;;;;;;;5019062;28;20045;-85
2023/11/04 10:41:13;;;;;;;1.65;1.20;;;;;;;;;;5020088;28;20029;-84
2023/11/04 10:43:39;;;;;;;1.83;0.63;;;;;;;;;;5020421;28;20024;-84
2023/11/04 10:46:12;;;;;;;4.00;1.30;;;;;;;;;;5019762;28;20089;-84
2023/11/04 10:48:50;;;;;;;5.60;4.30;;;;;;;;;;5019375;28;20108;-84
2023/11/04 10:51:24;;;;;;;3.03;0.70;;;;;;;;;;5019612;28;20322;-84
2023/11/04 10:54:11;;;;;;;1.52;0.82;;;;;;;;;;5031736;28;20085;-83
2023/11/04 10:56:42;;;;;;;2.58;0.88;;;;;;;;;;5001824;28;20148;-84
2023/11/04 10:59:14;;;;;;;0.77;0.63;;;;;;;;;;5001285;28;20028;-82
2023/11/04 11:01:41;;;;;;;2.17;0.77;;;;;;;;;;5002939;28;20037;-83
2023/11/04 11:04:08;;;;;;;1.02;0.63;;;;;;;;;;5002181;28;20041;-84
2023/11/04 11:06:36;;;;;;;3.25;1.65;;;;;;;;;;5019760;28;20029;-83
2023/11/04 11:09:04;;;;;;;1.60;0.75;;;;;;;;;;5002112;28;20037;-85
2023/11/04 11:11:43;;;;;;;2.15;0.80;;;;;;;;;;5019086;28;20061;-85
2023/11/04 11:14:11;;;;;;;0.80;0.57;;;;;;;;;;5018552;28;20053;-84
2023/11/04 11:16:38;;;;;;;1.42;0.85;;;;;;;;;;5015159;28;20105;-86
2023/11/04 11:19:12;;;;;;;1.13;1.02;;;;;;;;;;5017071;28;20188;-83
2023/11/04 11:21:49;;;;;;;1.50;0.70;;;;;;;;;;5022639;28;20461;-84
2023/11/04 11:24:16;;;;;;;0.98;0.70;;;;;;;;;;5039141;28;20074;-84
2023/11/04 11:26:46;;;;;;;3.70;2.00;;;;;;;;;;5021128;28;20270;-85
2023/11/04 11:29:24;;;;;;;5.00;1.27;;;;;;;;;;5037559;28;20033;-85
2023/11/04 11:31:51;;;;;;;2.63;0.98;;;;;;;;;;5038252;28;20067;-82
2023/11/04 11:34:18;;;;;;;0.73;0.70;;;;;;;;;;5037861;28;20081;-85
2023/11/04 11:36:46;;;;;;;1.42;1.10;;;;;;;;;;5003656;28;20095;-85
2023/11/04 11:39:13;;;;;;;3.80;1.15;;;;;;;;;;5038047;28;20037;-84
2023/11/04 11:41:39;;;;;;;1.55;0.80;;;;;;;;;;5039749;28;20026;-86
2023/11/04 11:44:06;;;;;;;2.35;0.80;;;;;;;;;;5041048;28;20373;-84
2023/11/04 11:46:32;;;;;;;3.03;1.15;;;;;;;;;;5021923;28;20022;-85
2023/11/04 11:48:59;;;;;;;2.95;1.05;;;;;;;;;;5021357;28;20036;-87
2023/11/04 11:51:27;;;;;;;0.80;0.75;;;;;;;;;;5039183;28;20035;-85
2023/11/04 11:53:53;;;;;;;1.50;0.85;;;;;;;;;;5038851;28;20028;-85
2023/11/04 11:56:18;;;;;;;1.45;1.05;;;;;;;;;;5039144;28;20037;-85
2023/11/04 11:58:47;;;;;;;1.05;0.65;;;;;;;;;;5038739;28;20029;-84
2023/11/04 12:01:16;;;;;;;3.17;0.80;;;;;;;;;;5037272;28;20036;-86
2023/11/04 12:03:44;;;;;;;2.40;1.75;;;;;;;;;;5022082;28;20029;-85
2023/11/04 12:06:11;;;;;;;0.68;0.68;;;;;;;;;;5038774;28;20073;-83
2023/11/04 12:08:37;;;;;;;0.88;0.60;;;;;;;;;;5038263;28;20063;-85
2023/11/04 12:11:03;;;;;;;1.98;1.83;;;;;;;;;;5039211;28;20025;-82
2023/11/04 12:13:28;;;;;;;1.88;1.10;;;;;;;;;;5021217;28;20021;-85
2023/11/04 12:15:54;;;;;;;1.45;0.68;;;;;;;;;;5019552;28;20079;-85
2023/11/04 12:18:19;;;;;;;2.58;0.73;;;;;;;;;;5021009;28;20135;-86
2023/11/04 12:20:46;;;;;;;0.88;0.77;;;;;;;;;;5021901;28;20025;-85
2023/11/04 12:23:13;;;;;;;1.13;0.70;;;;;;;;;;5038676;28;20033;-80
2023/11/04 12:25:41;;;;;;;2.22;1.10;;;;;;;;;;5040725;28;20495;-87
2023/11/04 12:28:09;;;;;;;7.68;1.15;;;;;;;;;;5039687;28;20021;-84
2023/11/04 12:30:35;;;;;;;0.90;0.60;;;;;;;;;;5021141;28;20116;-82
2023/11/04 12:33:02;;;;;;;1.67;0.90;;;;;;;;;;5021389;28;20026;-85
2023/11/04 12:35:31;;;;;;;2.05;0.70;;;;;;;;;;5037812;28;20042;-84
2023/11/04 12:38:00;;;;;;;2.47;0.80;;;;;;;;;;5021597;28;20098;-85
2023/11/04 12:40:29;;;;;;;2.08;0.82;;;;;;;;;;5039441;28;20021;-86
2023/11/04 12:43:01;;;;;;;2.10;0.88;;;;;;;;;;5040230;28;20071;-84
2023/11/04 12:45:27;;;;;;;;;;;;;;;;;;5040070;28;20114;-85
2023/11/04 12:47:52;;;;;;;0.90;0.70;;;;;;;;;;5041131;28;20004;-85
2023/11/04 12:50:18;;;;;;;0.73;0.60;;;;;;;;;;5023365;28;20370;-84
2023/11/04 12:52:44;;;;;;;4.32;0.80;;;;;;;;;;5023463;28;20034;-83
2023/11/04 12:55:10;;;;;;;2.03;0.60;;;;;;;;;;5039547;28;20083;-86
2023/11/04 12:57:36;;;;;;;1.50;1.05;;;;;;;;;;5039133;28;20060;-85
2023/11/04 13:00:04;;;;;;;2.75;0.80;;;;;;;;;;5022738;28;20036;-84
2023/11/04 13:02:31;;;;;;;0.52;0.52;;;;;;;;;;5006869;28;20036;-85
2023/11/04 13:05:00;;;;;;;1.88;0.68;;;;;;;;;;5023072;28;20025;-86
2023/11/04 13:07:26;;;;;;;1.98;0.80;;;;;;;;;;5023232;28;20162;-86
2023/11/04 13:09:55;;;;;;;1.40;0.82;;;;;;;;;;5024420;28;20029;-84
2023/11/04 13:12:21;;;;;;;1.75;0.80;;;;;;;;;;5038840;28;20425;-86
2023/11/04 13:14:46;;;;;;;7.25;4.85;;;;;;;;;;5038681;28;20068;-86
2023/11/04 13:17:12;;;;;;;1.52;1.02;;;;;;;;;;5042743;28;20081;-83
2023/11/04 13:19:37;;;;;;;2.80;0.65;;;;;;;;;;5039782;28;20029;-86
2023/11/04 13:22:03;;;;;;;1.95;0.60;;;;;;;;;;5041700;28;20398;-86
2023/11/04 13:24:29;;;;;;;1.50;0.80;;;;;;;;;;5040186;28;20351;-86
2023/11/04 13:26:54;;;;;;;0.75;0.50;;;;;;;;;;5039914;28;20033;-84
2023/11/04 13:29:20;;;;;;;4.43;0.98;;;;;;;;;;5039727;28;20464;-84
2023/11/04 13:31:45;;;;;;;1.23;0.85;;;;;;;;;;5020674;28;20034;-85
2023/11/04 13:34:11;;;;;;;1.80;0.40;;;;;;;;;;5022170;28;20025;-85
2023/11/04 13:36:37;;;;;;;6.00;0.60;;;;;;;;;;5036418;28;20097;-84
2023/11/04 13:39:06;;;;;;;1.65;0.60;;;;;;;;;;5034820;28;20029;-86
2023/11/04 13:41:33;;;;;;;0.90;0.57;;;;;;;;;;5020290;28;20096;-84
2023/11/04 13:43:58;;;;;;;1.65;0.80;;;;;;;;;;5037391;28;20504;-85
2023/11/04 13:46:24;;;;;;;1.92;0.73;;;;;;;;;;5036116;28;20041;-87
2023/11/04 13:48:51;;;;;;;1.17;0.47;;;;;;;;;;5034331;28;20029;-85
2023/11/04 13:51:17;;;;;;;2.63;0.40;;;;;;;;;;5034415;28;20034;-83
2023/11/04 13:53:43;;;;;;;2.17;0.95;;;;;;;;;;5032903;28;20049;-86
2023/11/04 13:56:09;;;;;;;1.13;0.73;;;;;;;;;;5016026;28;20404;-87
2023/11/04 13:58:34;;;;;;;2.25;0.75;;;;;;;;;;5035274;28;20053;-83
2023/11/04 14:01:00;;;;;;;3.50;1.67;;;;;;;;;;5017196;28;20025;-86
2023/11/04 14:03:26;;;;;;;7.68;0.90;;;;;;;;;;5033529;28;20052;-83
2023/11/04 14:05:51;;;;;;;1.58;0.60;;;;;;;;;;5034750;28;20021;-86
2023/11/04 14:08:17;;;;;;;3.97;0.70;;;;;;;;;;5017019;28;20022;-84
2023/11/04 14:10:43;;;;;;;2.55;0.50;;;;;;;;;;5038838;28;20025;-86
2023/11/04 14:13:08;;;;;;;2.45;0.90;;;;;;;;;;5036506;28;20053;-86
2023/11/04 14:15:34;;;;;;;1.65;0.60;;;;;;;;;;5035646;28;20025;-87
2023/11/04 14:17:59;;;;;;;1.80;0.80;;;;;;;;;;5020928;28;20067;-85
2023/11/04 14:20:25;;;;;;;2.30;0.80;;;;;;;;;;5013244;28;20045;-86
2023/11/04 14:22:51;;;;;;;1.08;0.60;;;;;;;;;;4997455;28;20022;-87
2023/11/04 14:25:18;;;;;;;0.77;0.63;;;;;;;;;;4998499;28;20037;-85
2023/11/04 14:27:44;;;;;;;1.55;0.80;;;;;;;;;;4999604;28;20447;-85
2023/11/04 14:30:11;;;;;;;3.08;1.23;;;;;;;;;;5022705;28;20045;-86
2023/11/04 14:32:38;;;;;;;2.20;0.73;;;;;;;;;;5018056;28;20093;-85
2023/11/04 14:35:05;;;;;;;2.58;0.80;;;;;;;;;;5032391;28;20034;-85
2023/11/04 14:37:30;;;;;;;0.80;0.70;;;;;;;;;;5032631;28;20032;-84
2023/11/04 14:39:58;;;;;;;2.50;0.77;;;;;;;;;;5017501;28;20033;-86